Flight Track Log - Related Links

Times and Time Zones

All times are in EDT time to prevent confusion due to time zone crossing. See the AAY825 flight status page for this flight to view local times or setup timezone preferences in your user account.

Time Position Orientation Groundspeed Altitude Reporting Facility
EDT Latitude Longitude Course Direction KTS MPH feet Rate Location/Type
Mon 11:37:03 AM 41.5528 -93.6275 103° East 159 183 2,200  Level Minneapolis Center
Mon 11:38:03 AM 41.5414 -93.5639 103° East 228 262 3,500 1,615 Climbing Minneapolis Center
Mon 11:39:13 AM 41.4531 -93.5339 166° South 276 318 5,700 2,318 Climbing Minneapolis Center
Mon 11:40:15 AM 41.3700 -93.4953 161° South 291 335 8,600 2,419 Climbing Minneapolis Center
Mon 11:41:17 AM 41.2911 -93.4556 159° South 304 350 10,700 1,548 Climbing Minneapolis Center
Mon 11:42:19 AM 41.2025 -93.4119 160° South 329 379 11,800 1,385 Climbing Minneapolis Center
Mon 11:43:01 AM 41.1189 -93.3742 161° South 357 411 13,100 1,962 Climbing Chicago Center
Mon 11:44:03 AM 41.0153 -93.3081 154° Southeast 393 452 15,200 1,984 Climbing Chicago Center
Mon 11:45:05 AM 40.9158 -93.2203 146° Southeast 423 487 17,200 1,742 Climbing Chicago Center
Mon 11:46:07 AM 40.8144 -93.1353 148° Southeast 430 495 18,800 1,548 Climbing Chicago Center
Mon 11:47:09 AM 40.7075 -93.0489 149° Southeast 445 512 20,400 1,548 Climbing Chicago Center
Mon 11:48:11 AM 40.5758 -92.9425 148° Southeast 458 527 22,000 1,361 Climbing Chicago Center
Mon 11:48:46 AM 40.5322 -92.9089 150° Southeast 461 531 22,600 1,200 Climbing Kansas City Center
Mon 11:49:51 AM 40.4167 -92.7631 136° Southeast 484 557 24,000 1,392 Climbing Kansas City Center
Mon 11:50:51 AM 40.3283 -92.6242 130° Southeast 485 558 25,500 1,500 Climbing Kansas City Center
Mon 11:51:55 AM 40.2331 -92.4736 130° Southeast 489 563 27,100 1,392 Climbing Kansas City Center
Mon 11:52:56 AM 40.1464 -92.3400 130° Southeast 490 564 28,400 1,279 Climbing Kansas City Center
Mon 11:53:57 AM 40.0594 -92.2083 131° Southeast 486 559 29,700 1,113 Climbing Kansas City Center
Mon 11:55:00 AM 39.9739 -92.0781 131° Southeast 482 555 30,700 624 Climbing Kansas City Center
Mon 11:56:02 AM 39.8878 -91.9475 131° Southeast 481 554 31,000 143 Climbing Kansas City Center
Mon 11:57:06 AM 39.7850 -91.7944 131° Southeast 475 547 31,000  Level Kansas City Center
Mon 11:58:07 AM 39.7000 -91.6658 131° Southeast 475 547 31,000  Level Kansas City Center
Mon 11:59:10 AM 39.6164 -91.5356 130° Southeast 475 547 31,000  Level Kansas City Center
Mon 12:00:11 PM 39.5300 -91.4072 131° Southeast 475 547 31,000  Level Kansas City Center
Mon 12:01:12 PM 39.4269 -91.2575 132° Southeast 478 550 31,000  Level Kansas City Center
Mon 12:02:16 PM 39.3361 -91.1253 132° Southeast 487 560 31,000  Level Kansas City Center
Mon 12:03:17 PM 39.2475 -90.9914 130° Southeast 488 562 31,000  Level Kansas City Center
Mon 12:04:20 PM 39.1581 -90.8592 131° Southeast 488 562 31,000  Level Kansas City Center
Mon 12:05:22 PM 39.0686 -90.7275 131° Southeast 488 562 31,000  Level Kansas City Center
Mon 12:06:25 PM 38.9789 -90.5981 132° Southeast 488 562 31,000  Level Kansas City Center
Mon 12:07:25 PM 38.8850 -90.4550 130° Southeast 488 562 31,000  Level Kansas City Center
Mon 12:08:29 PM 38.7792 -90.3128 134° Southeast 490 564 31,000  Level Kansas City Center
Mon 12:09:30 PM 38.6881 -90.1819 132° Southeast 490 564 31,000  Level Kansas City Center
Mon 12:10:33 PM 38.5822 -90.0342 132° Southeast 495 570 31,000  Level Kansas City Center
Mon 12:11:35 PM 38.5000 -89.9097 130° Southeast 491 565 31,000  Level Kansas City Center
Mon 12:12:35 PM 38.4069 -89.7825 133° Southeast 491 565 31,000  Level Kansas City Center
Mon 12:13:40 PM 38.3142 -89.6492 132° Southeast 496 571 31,000  Level Kansas City Center
Mon 12:14:40 PM 38.2225 -89.5206 132° Southeast 494 568 31,000  Level Kansas City Center
Mon 12:15:42 PM 38.1117 -89.3664 132° Southeast 493 567 31,000  Level Kansas City Center
Mon 12:16:45 PM 38.0203 -89.2375 132° Southeast 491 565 31,000  Level Kansas City Center
Mon 12:17:46 PM 37.9272 -89.1075 132° Southeast 497 572 31,000  Level Kansas City Center
Mon 12:18:50 PM 37.8317 -88.9789 133° Southeast 499 574 31,000  Level Kansas City Center
Mon 12:19:51 PM 37.7367 -88.8439 132° Southeast 500 575 31,000  Level Kansas City Center
Mon 12:20:54 PM 37.6294 -88.6978 133° Southeast 502 578 31,000  Level Kansas City Center
Mon 12:21:43 PM 37.5481 -88.5858 133° Southeast 501 577 31,000  Level Memphis Center
Mon 12:22:45 PM 37.4533 -88.4581 133° Southeast 499 574 31,000  Level Memphis Center
Mon 12:23:47 PM 37.3606 -88.3317 133° Southeast 495 570 31,000  Level Memphis Center
Mon 12:24:49 PM 37.2683 -88.2069 133° Southeast 490 564 31,000  Level Memphis Center
Mon 12:25:51 PM 37.1708 -88.0711 132° Southeast 486 559 31,000  Level Memphis Center
Mon 12:26:53 PM 37.0789 -87.9461 133° Southeast 485 558 31,000  Level Memphis Center
Mon 12:27:55 PM 36.9886 -87.8219 132° Southeast 483 556 31,000  Level Memphis Center
Mon 12:28:57 PM 36.8983 -87.6986 132° Southeast 480 552 31,000  Level Memphis Center
Mon 12:29:59 PM 36.8067 -87.5764 133° Southeast 480 552 31,000  Level Memphis Center
Mon 12:31:01 PM 36.6992 -87.4325 133° Southeast 480 552 31,000 97 Level Memphis Center
Mon 12:32:03 PM 36.6067 -87.3067 132° Southeast 485 558 31,200 581 Climbing Memphis Center
Mon 12:33:05 PM 36.5142 -87.1808 132° Southeast 485 558 32,200 919 Climbing Memphis Center
Mon 12:34:07 PM 36.4219 -87.0583 133° Southeast 485 558 33,100 390 Climbing Memphis Center
Mon 12:35:08 PM 36.3283 -86.9361 134° Southeast 481 554 33,000 -49 Descending Memphis Center
Mon 12:36:10 PM 36.2242 -86.8019 134° Southeast 482 555 33,000  Level Memphis Center
Mon 12:37:12 PM 36.1308 -86.6872 135° Southeast 477 549 33,000  Level Memphis Center
Mon 12:38:14 PM 36.0111 -86.6211 156° South 471 542 33,000  Level Memphis Center
Mon 12:39:16 PM 35.8908 -86.5614 158° South 464 534 33,000  Level Memphis Center
Mon 12:40:18 PM 35.7694 -86.5017 158° South 464 534 33,000  Level Memphis Center
Mon 12:41:20 PM 35.6489 -86.4411 158° South 464 534 33,000  Level Memphis Center
Mon 12:42:22 PM 35.5289 -86.3808 158° South 463 533 33,000  Level Memphis Center
Mon 12:43:24 PM 35.4089 -86.3233 159° South 462 532 33,000  Level Memphis Center
Mon 12:44:25 PM 35.2681 -86.2581 159° South 461 531 33,000  Level Memphis Center
Mon 12:45:27 PM 35.1456 -86.1961 158° South 461 531 33,000  Level Memphis Center
Mon 12:46:29 PM 35.0272 -86.1378 158° South 461 531 33,000  Level Memphis Center
Mon 12:47:31 PM 34.9089 -86.0819 159° South 461 531 33,000  Level Memphis Center
Mon 12:48:33 PM 34.7906 -86.0231 158° South 461 531 33,000  Level Memphis Center
Mon 12:49:35 PM 34.6711 -85.9611 157° South 463 533 33,000  Level Memphis Center
Mon 12:50:07 PM 34.6003 -85.9061 147° Southeast 467 537 33,000  Level Atlanta Center
Mon 12:51:06 PM 34.4869 -85.8206 148° Southeast 467 537 33,000  Level Atlanta Center
Mon 12:52:06 PM 34.4000 -85.7608 150° Southeast 467 537 33,000  Level Atlanta Center
Mon 12:53:06 PM 34.2761 -85.6678 148° Southeast 467 537 33,000  Level Atlanta Center
Mon 12:54:06 PM 34.1664 -85.5853 148° Southeast 467 537 33,000  Level Atlanta Center
Mon 12:55:06 PM 34.0547 -85.5081 150° Southeast 467 537 33,000  Level Atlanta Center
Mon 12:56:06 PM 33.9428 -85.4361 152° Southeast 462 532 33,000  Level Atlanta Center
Mon 12:57:07 PM 33.8247 -85.3667 154° Southeast 462 532 33,000  Level Atlanta Center
Mon 12:58:06 PM 33.7086 -85.2975 154° Southeast 462 532 33,000  Level Atlanta Center
Mon 12:59:06 PM 33.5922 -85.2308 154° Southeast 462 532 33,000  Level Atlanta Center
Mon 01:00:07 PM 33.4697 -85.1819 162° South 462 532 33,000  Level Atlanta Center
Mon 01:01:06 PM 33.3489 -85.1456 166° South 462 532 33,000  Level Atlanta Center
Mon 01:02:06 PM 33.2261 -85.1142 168° South 457 526 33,000  Level Atlanta Center
Mon 01:03:06 PM 33.1011 -85.0778 166° South 452 520 33,000  Level Atlanta Center
Mon 01:04:06 PM 32.9783 -85.0417 166° South 452 520 33,000  Level Atlanta Center
Mon 01:05:06 PM 32.8553 -85.0081 167° South 452 520 33,000  Level Atlanta Center
Mon 01:06:06 PM 32.7219 -84.9647 165° South 452 520 33,000  Level Atlanta Center
Mon 01:07:07 PM 32.6033 -84.9314 167° South 454 522 33,000  Level Atlanta Center
Mon 01:08:06 PM 32.4783 -84.8958 167° South 454 522 33,000  Level Atlanta Center
Mon 01:09:06 PM 32.3492 -84.8600 167° South 455 524 33,000  Level Atlanta Center
Mon 01:10:07 PM 32.2283 -84.8319 169° South 461 531 33,000  Level Atlanta Center
Mon 01:11:06 PM 32.1033 -84.7964 166° South 461 531 33,000  Level Atlanta Center
Mon 01:12:06 PM 31.9908 -84.7636 166° South 461 531 33,000 -635 Level Atlanta Center
Mon 01:14:15 PM 31.7111 -84.6875 167° South 488 562 31,000 -635 Descending Jacksonville Center
Mon 01:15:15 PM 31.5886 -84.6558 168° South 470 541 31,000 -50 Level Jacksonville Center
Mon 01:16:15 PM 31.4617 -84.6194 166° South 465 535 30,900 -800 Descending Jacksonville Center
Mon 01:17:15 PM 31.3325 -84.5853 167° South 465 535 29,400 -1,400 Descending Jacksonville Center
Mon 01:18:15 PM 31.2164 -84.5300 158° South 465 535 28,100 -1,250 Descending Jacksonville Center
Mon 01:19:15 PM 31.1217 -84.4286 137° Southeast 450 518 26,900 -1,100 Descending Jacksonville Center
Mon 01:20:15 PM 31.0308 -84.3328 138° Southeast 450 518 25,900 -1,000 Descending Jacksonville Center
Mon 01:21:15 PM 30.9486 -84.2297 133° Southeast 444 511 24,900 -950 Descending Jacksonville Center
Mon 01:22:15 PM 30.8744 -84.1172 128° Southeast 433 498 24,000 -450 Descending Jacksonville Center
Mon 01:23:15 PM 30.8003 -84.0100 129° Southeast 433 498 24,000  Level Jacksonville Center
Mon 01:24:15 PM 30.7239 -83.9028 130° Southeast 428 493 24,000  Level Jacksonville Center
Mon 01:25:15 PM 30.6494 -83.7981 130° Southeast 428 493 24,000  Level Jacksonville Center
Mon 01:26:15 PM 30.5731 -83.6911 130° Southeast 428 493 24,000  Level Jacksonville Center
Mon 01:27:15 PM 30.5047 -83.5989 131° Southeast 423 487 24,000  Level Jacksonville Center
Mon 01:28:15 PM 30.4194 -83.5019 136° Southeast 423 487 24,000  Level Jacksonville Center
Mon 01:29:15 PM 30.3261 -83.4172 142° Southeast 423 487 24,000  Level Jacksonville Center
Mon 01:30:15 PM 30.2219 -83.3542 152° Southeast 428 493 24,000  Level Jacksonville Center
Mon 01:31:15 PM 30.1114 -83.3081 160° South 414 476 24,000  Level Jacksonville Center
Mon 01:32:15 PM 29.9986 -83.2908 172° South 414 476 24,000 -200 Level Jacksonville Center
Mon 01:33:15 PM 29.8797 -83.3094 188° South 414 476 23,600 -650 Descending Jacksonville Center
Mon 01:34:15 PM 29.7647 -83.2897 172° South 414 476 22,700 -1,000 Descending Jacksonville Center
Mon 01:35:15 PM 29.6500 -83.2653 170° South 420 483 21,600 -1,600 Descending Jacksonville Center
Mon 01:36:15 PM 29.5353 -83.2364 168° South 425 489 19,500 -1,350 Descending Jacksonville Center
Mon 01:37:15 PM 29.4206 -83.2119 169° South 425 489 18,900 -250 Descending Jacksonville Center
Mon 01:38:15 PM 29.3122 -83.1903 170° South 419 482 19,000 -800 Climbing Jacksonville Center
Mon 01:39:15 PM 29.2078 -83.1614 166° South 403 464 17,300 -2,050 Descending Jacksonville Center
Mon 01:40:15 PM 29.1078 -83.0922 149° Southeast 375 432 14,900 -1,950 Descending Jacksonville Center
Mon 01:41:15 PM 29.0181 -83.0328 150° Southeast 375 432 13,400 -1,150 Descending Jacksonville Center
Mon 01:42:15 PM 28.9306 -82.9781 151° Southeast 370 426 12,600 -750 Descending Jacksonville Center
Mon 01:43:15 PM 28.8386 -82.9306 156° South 364 419 11,900 -623 Descending Jacksonville Center
Mon 01:44:49 PM 28.7000 -82.8833 163° South 352 405 11,000 -358 Descending Tampa TRACON
Mon 01:45:46 PM 28.6639 -82.9411 235° Southwest 314 361 11,000  Level Miami Center
Mon 01:46:48 PM 28.5897 -83.0031 216° Southwest 334 384 11,000 -48 Level Miami Center
Mon 01:47:50 PM 28.4833 -83.0167 186° South 347 399 10,900 -520 Descending Tampa TRACON
Mon 01:48:55 PM 28.3833 -83.0000 172° South 303 349 9,900 -1,210 Descending Tampa TRACON
Mon 01:49:54 PM 28.3092 -82.9903 173° South 300 345 8,400 -1,537 Descending Miami Center
Mon 01:50:56 PM 28.2450 -82.9378 144° Southeast 291 335 6,800 -1,125 Descending Miami Center
Mon 01:52:02 PM 28.1833 -82.8667 135° Southeast 287 330 6,000 -700 Descending Tampa TRACON
Mon 01:52:56 PM 28.1333 -82.8167 139° Southeast 281 323 5,400 -1,100 Descending Tampa TRACON
Mon 01:54:02 PM 28.0833 -82.7333 124° Southeast 250 288 3,800 -1,500 Descending Tampa TRACON
Mon 01:54:56 PM 28.0333 -82.7000 150° Southeast 230 265 2,400 -1,250 Descending Tampa TRACON
Mon 01:56:02 PM 27.9833 -82.6667 150° Southeast 156 180 1,300 -857 Descending Tampa TRACON
Mon 01:57:02 PM 27.9500 -82.6833 204° Southwest 126 145 600 -700 Descending Tampa TRACON

Login

Don't have an account? Register now (free) for customized features, flight alerts, and more!